createdAt,value
2022-09-24T00:01:26.206Z,5.85
2022-09-24T00:04:01.310Z,5.63
2022-09-24T00:06:30.236Z,5.55
2022-09-24T00:08:57.791Z,5.88
2022-09-24T00:11:26.371Z,5.77
2022-09-24T00:13:53.633Z,5.75
2022-09-24T00:16:22.616Z,5.40
2022-09-24T00:18:49.814Z,5.38
2022-09-24T00:21:25.176Z,4.90
2022-09-24T00:23:55.088Z,4.90
2022-09-24T00:26:40.930Z,5.32
2022-09-24T00:29:08.804Z,5.25
2022-09-24T00:31:35.718Z,5.50
2022-09-24T00:34:02.712Z,4.82
2022-09-24T00:36:29.369Z,5.10
2022-09-24T00:38:58.048Z,5.43
2022-09-24T00:41:29.636Z,5.65
2022-09-24T00:43:56.356Z,5.53
2022-09-24T00:46:27.120Z,5.65
2022-09-24T00:48:57.976Z,5.23
2022-09-24T00:51:26.893Z,5.10
2022-09-24T00:53:56.989Z,5.50
2022-09-24T00:56:24.099Z,5.20
2022-09-24T00:58:54.257Z,5.65
2022-09-24T01:01:23.182Z,5.23
2022-09-24T01:03:51.128Z,5.28
2022-09-24T01:06:17.735Z,5.30
2022-09-24T01:08:45.619Z,5.35
2022-09-24T01:11:24.385Z,5.70
2022-09-24T01:14:13.771Z,5.40
2022-09-24T01:17:04.772Z,5.20
2022-09-24T01:19:46.495Z,5.35
2022-09-24T01:22:39.141Z,4.97
2022-09-24T01:25:26.537Z,5.13
2022-09-24T01:27:56.622Z,5.20
2022-09-24T01:30:25.364Z,4.75
2022-09-24T01:32:55.478Z,4.80
2022-09-24T01:35:26.537Z,4.80
2022-09-24T01:38:03.411Z,4.60
2022-09-24T01:40:30.853Z,4.30
2022-09-24T01:42:59.360Z,4.28
2022-09-24T01:45:31.145Z,4.55
2022-09-24T01:48:00.787Z,4.32
2022-09-24T01:50:30.106Z,4.28
2022-09-24T01:53:17.559Z,4.50
2022-09-24T01:55:49.014Z,4.45
2022-09-24T01:58:23.327Z,4.70
2022-09-24T02:00:53.056Z,4.53
2022-09-24T02:03:26.814Z,4.60
2022-09-24T02:06:12.631Z,4.53
2022-09-24T02:08:47.460Z,4.50
2022-09-24T02:11:17.481Z,4.20
2022-09-24T02:13:49.908Z,4.35
2022-09-24T02:16:21.884Z,3.92
2022-09-24T02:18:51.548Z,4.27
2022-09-24T02:21:19.786Z,4.30
2022-09-24T02:23:52.110Z,4.80
2022-09-24T02:26:18.740Z,3.95
2022-09-24T02:28:46.219Z,4.60
2022-09-24T02:31:16.257Z,4.00
2022-09-24T02:34:03.132Z,3.88
2022-09-24T02:36:30.535Z,4.60
2022-09-24T02:38:57.190Z,3.80
2022-09-24T02:41:24.565Z,4.18
2022-09-24T02:43:51.961Z,3.93
2022-09-24T02:46:19.145Z,4.10
2022-09-24T02:48:45.932Z,3.83
2022-09-24T02:51:12.540Z,4.28
2022-09-24T02:53:39.149Z,3.97
2022-09-24T02:56:06.219Z,3.87
2022-09-24T02:58:32.855Z,4.00
2022-09-24T03:00:59.497Z,4.57
2022-09-24T03:03:26.792Z,4.00
2022-09-24T03:05:54.776Z,4.25
2022-09-24T03:08:22.576Z,3.80
2022-09-24T03:10:51.201Z,3.92
2022-09-24T03:13:18.452Z,4.25
2022-09-24T03:15:46.110Z,3.78
2022-09-24T03:18:13.474Z,4.20
2022-09-24T03:20:40.220Z,4.07
2022-09-24T03:23:06.919Z,4.13
2022-09-24T03:25:33.733Z,4.00
2022-09-24T03:28:00.343Z,3.95
2022-09-24T03:30:45.427Z,4.10
2022-09-24T03:33:12.248Z,4.40
2022-09-24T03:35:38.854Z,4.32
2022-09-24T03:38:05.465Z,4.30
2022-09-24T03:40:32.155Z,4.55
2022-09-24T03:42:58.761Z,4.35
2022-09-24T03:45:25.912Z,4.37
2022-09-24T03:47:52.551Z,4.15
2022-09-24T03:50:19.137Z,4.25
2022-09-24T03:52:45.730Z,4.40
2022-09-24T03:55:12.372Z,4.20
2022-09-24T03:57:38.941Z,4.13
2022-09-24T04:00:05.953Z,4.00
2022-09-24T04:02:32.646Z,4.90
2022-09-24T04:04:59.326Z,4.95
2022-09-24T04:07:25.911Z,4.50
2022-09-24T04:09:52.913Z,4.07
2022-09-24T04:12:20.242Z,4.60
2022-09-24T04:14:46.867Z,4.90
2022-09-24T04:17:14.200Z,4.95
2022-09-24T04:19:40.871Z,4.97
2022-09-24T04:22:07.486Z,4.17
2022-09-24T04:24:34.259Z,3.92
2022-09-24T04:27:00.846Z,4.40
2022-09-24T04:29:27.426Z,4.72
2022-09-24T04:31:54.064Z,4.50
2022-09-24T04:34:21.365Z,4.20
2022-09-24T04:36:47.960Z,4.45
2022-09-24T04:39:15.655Z,4.07
2022-09-24T04:41:42.283Z,4.43
2022-09-24T04:44:08.978Z,4.60
2022-09-24T04:46:35.715Z,4.17
2022-09-24T04:49:02.545Z,3.88
2022-09-24T04:51:29.250Z,4.00
2022-09-24T04:53:55.884Z,4.07
2022-09-24T04:56:22.480Z,4.22
2022-09-24T04:58:51.830Z,3.97
2022-09-24T05:01:20.360Z,4.22
2022-09-24T05:03:47.242Z,4.43
2022-09-24T05:06:13.830Z,4.20
2022-09-24T05:08:40.427Z,4.28
2022-09-24T05:11:07.475Z,4.23
2022-09-24T05:13:35.285Z,4.28
2022-09-24T05:16:03.245Z,4.28
2022-09-24T05:18:29.899Z,4.35
2022-09-24T05:20:56.552Z,4.20
2022-09-24T05:23:23.206Z,3.97
2022-09-24T05:26:08.354Z,4.00
2022-09-24T05:28:35.309Z,4.38
2022-09-24T05:31:02.524Z,3.67
2022-09-24T05:33:29.197Z,4.22
2022-09-24T05:35:57.424Z,4.93
2022-09-24T05:38:24.759Z,4.10
2022-09-24T05:40:51.442Z,4.38
2022-09-24T05:43:19.436Z,4.00
2022-09-24T05:45:46.383Z,3.88
2022-09-24T05:48:13.049Z,4.30
2022-09-24T05:50:39.762Z,4.10
2022-09-24T05:53:06.593Z,4.20
2022-09-24T05:55:33.642Z,4.00
2022-09-24T05:58:09.038Z,4.30
2022-09-24T06:00:36.281Z,4.13
2022-09-24T06:03:12.421Z,3.85
2022-09-24T06:05:39.595Z,4.20
2022-09-24T06:08:06.663Z,4.40
2022-09-24T06:10:33.312Z,4.50
2022-09-24T06:12:59.893Z,4.33
2022-09-24T06:15:27.391Z,4.55
2022-09-24T06:17:54.894Z,4.18
2022-09-24T06:20:22.665Z,4.15
2022-09-24T06:22:49.487Z,4.68
2022-09-24T06:25:16.272Z,4.07
2022-09-24T06:27:42.867Z,4.30
2022-09-24T06:30:10.094Z,4.13
2022-09-24T06:32:36.688Z,4.20
2022-09-24T06:35:03.707Z,3.65
2022-09-24T06:37:30.315Z,4.00
2022-09-24T06:39:56.921Z,3.90
2022-09-24T06:42:23.548Z,3.90
2022-09-24T06:44:50.584Z,4.10
2022-09-24T06:47:17.525Z,3.67
2022-09-24T06:49:47.895Z,4.10
2022-09-24T06:52:14.626Z,3.72
2022-09-24T06:54:41.208Z,3.92
2022-09-24T06:57:07.851Z,3.80
2022-09-24T06:59:34.449Z,4.35
2022-09-24T07:02:01.103Z,4.00
2022-09-24T07:04:27.764Z,3.70
2022-09-24T07:07:12.999Z,4.07
2022-09-24T07:09:41.504Z,3.80
2022-09-24T07:12:08.903Z,4.07
2022-09-24T07:14:35.572Z,4.47
2022-09-24T07:17:02.277Z,4.82
2022-09-24T07:19:28.909Z,4.10
2022-09-24T07:21:55.490Z,4.13
2022-09-24T07:24:22.106Z,4.20
2022-09-24T07:26:48.717Z,4.80
2022-09-24T07:29:15.409Z,4.20
2022-09-24T07:31:42.413Z,4.30
2022-09-24T07:34:09.287Z,4.55
2022-09-24T07:36:36.293Z,4.22
2022-09-24T07:39:05.528Z,3.87
2022-09-24T07:41:33.050Z,4.35
2022-09-24T07:44:00.168Z,4.15
2022-09-24T07:46:27.120Z,4.03
2022-09-24T07:48:56.370Z,4.28
2022-09-24T07:51:24.057Z,4.10
2022-09-24T07:53:50.688Z,4.13
2022-09-24T07:56:17.729Z,3.80
2022-09-24T07:58:44.386Z,3.63
2022-09-24T08:01:11.172Z,3.90
2022-09-24T08:03:39.244Z,4.30
2022-09-24T08:06:06.044Z,3.85
2022-09-24T08:08:32.683Z,4.35
2022-09-24T08:11:04.010Z,4.30
2022-09-24T08:13:30.602Z,4.20
2022-09-24T08:16:01.457Z,4.60
2022-09-24T08:18:29.722Z,4.10
2022-09-24T08:20:56.378Z,4.20
2022-09-24T08:23:22.964Z,4.05
2022-09-24T08:25:49.932Z,4.18
2022-09-24T08:28:19.857Z,3.80
2022-09-24T08:30:46.846Z,4.32
2022-09-24T08:33:13.532Z,4.18
2022-09-24T08:35:40.363Z,3.72
2022-09-24T08:38:07.473Z,4.63
2022-09-24T08:40:39.034Z,4.13
2022-09-24T08:43:20.887Z,4.13
2022-09-24T08:46:14.880Z,3.95
2022-09-24T08:48:45.896Z,3.83
2022-09-24T08:51:17.885Z,4.07
2022-09-24T08:53:58.206Z,4.20
2022-09-24T08:56:30.627Z,3.88
2022-09-24T08:59:01.496Z,3.65
2022-09-24T09:01:48.007Z,4.03
2022-09-24T09:04:26.784Z,3.95
2022-09-24T09:06:57.954Z,3.80
2022-09-24T09:09:27.595Z,3.63
2022-09-24T09:12:01.132Z,3.83
2022-09-24T09:14:31.530Z,4.10
2022-09-24T09:17:45.719Z,3.92
2022-09-24T09:20:18.443Z,4.10
2022-09-24T09:22:49.945Z,4.03
2022-09-24T09:25:24.760Z,3.90
2022-09-24T09:27:56.055Z,3.58
2022-09-24T09:30:22.877Z,4.00
2022-09-24T09:33:09.754Z,4.03
2022-09-24T09:35:44.817Z,3.75
2022-09-24T09:38:29.770Z,3.60
2022-09-24T09:41:02.937Z,3.58
2022-09-24T09:43:29.662Z,4.00
2022-09-24T09:46:10.402Z,3.97
2022-09-24T09:48:49.099Z,3.78
2022-09-24T09:51:22.802Z,3.85
2022-09-24T09:53:56.881Z,3.67
2022-09-24T09:56:25.992Z,3.70
2022-09-24T09:59:02.169Z,3.90
2022-09-24T10:01:33.570Z,3.88
2022-09-24T10:04:04.714Z,3.95
2022-09-24T10:06:34.481Z,3.45
2022-09-24T10:09:21.832Z,3.90
2022-09-24T10:11:48.606Z,3.80
2022-09-24T10:14:18.543Z,3.80
2022-09-24T10:16:52.190Z,3.83
2022-09-24T10:19:23.973Z,4.35
2022-09-24T10:21:51.178Z,3.80
2022-09-24T10:24:21.860Z,3.40
2022-09-24T10:26:48.913Z,3.65
2022-09-24T10:29:37.622Z,3.92
2022-09-24T10:32:05.137Z,4.03
2022-09-24T10:34:33.265Z,3.70
2022-09-24T10:37:11.699Z,3.70
2022-09-24T10:39:38.627Z,4.10
2022-09-24T10:42:07.636Z,3.65
2022-09-24T10:44:36.757Z,3.55
2022-09-24T10:47:46.803Z,4.05
2022-09-24T10:50:40.223Z,3.40
2022-09-24T10:53:39.492Z,3.80
2022-09-24T10:56:31.246Z,3.90
2022-09-24T10:59:07.750Z,3.70
2022-09-24T11:01:58.791Z,3.60
2022-09-24T11:04:28.920Z,3.83
2022-09-24T11:07:22.866Z,3.50
2022-09-24T11:09:58.285Z,3.63
2022-09-24T11:12:40.298Z,3.50
2022-09-24T11:15:46.994Z,3.78
2022-09-24T11:18:33.537Z,3.47
2022-09-24T11:21:13.449Z,3.13
2022-09-24T11:23:53.639Z,3.20
2022-09-24T11:26:32.425Z,3.50
2022-09-24T11:29:07.956Z,3.08
2022-09-24T11:32:14.064Z,3.70
2022-09-24T11:34:55.509Z,3.40
2022-09-24T11:37:37.955Z,3.55
2022-09-24T11:40:30.073Z,3.20
2022-09-24T11:43:23.839Z,3.22
2022-09-24T11:46:15.468Z,3.40
2022-09-24T11:48:44.853Z,3.33
2022-09-24T11:51:30.314Z,3.42
2022-09-24T11:54:29.983Z,3.20
2022-09-24T11:57:19.822Z,3.20
2022-09-24T12:00:00.550Z,3.30
2022-09-24T12:02:49.059Z,3.08
2022-09-24T12:05:19.912Z,3.70
2022-09-24T12:07:54.427Z,3.20
2022-09-24T12:10:35.544Z,3.03
2022-09-24T12:13:27.610Z,3.20
2022-09-24T12:16:01.733Z,3.50
2022-09-24T12:18:34.364Z,3.10
2022-09-24T12:21:26.878Z,3.20
2022-09-24T12:24:02.372Z,3.53
2022-09-24T12:26:31.401Z,3.43
2022-09-24T12:29:19.639Z,3.30
2022-09-24T12:32:17.541Z,3.40
2022-09-24T12:35:08.830Z,3.80
2022-09-24T12:37:38.723Z,3.60
2022-09-24T12:40:20.440Z,3.60
2022-09-24T12:42:50.779Z,3.97
2022-09-24T12:45:21.078Z,3.88
2022-09-24T12:47:55.571Z,3.88
2022-09-24T12:50:24.940Z,3.80
2022-09-24T12:52:51.526Z,3.90
2022-09-24T12:55:27.240Z,3.80
2022-09-24T12:58:08.185Z,4.03
2022-09-24T13:00:48.351Z,3.67
2022-09-24T13:03:41.963Z,3.83
2022-09-24T13:06:33.221Z,4.07
2022-09-24T13:09:00.016Z,3.95
2022-09-24T13:11:29.849Z,4.18
2022-09-24T13:14:02.691Z,4.03
2022-09-24T13:16:29.702Z,3.90
2022-09-24T13:19:02.401Z,3.53
2022-09-24T13:21:30.147Z,4.13
2022-09-24T13:23:56.990Z,3.92
2022-09-24T13:26:33.908Z,3.75
2022-09-24T13:29:02.771Z,3.72
2022-09-24T13:31:29.355Z,3.90
2022-09-24T13:34:11.856Z,3.55
2022-09-24T13:36:42.992Z,4.00
2022-09-24T13:39:21.665Z,3.78
2022-09-24T13:42:06.987Z,4.38
2022-09-24T13:44:45.575Z,3.47
2022-09-24T13:47:24.429Z,3.70
2022-09-24T13:49:52.323Z,3.85
2022-09-24T13:52:30.988Z,3.40
2022-09-24T13:55:00.811Z,3.70
2022-09-24T13:57:28.754Z,3.73
2022-09-24T14:00:15.500Z,3.70
2022-09-24T14:02:52.589Z,3.50
2022-09-24T14:05:19.925Z,3.45
2022-09-24T14:08:05.890Z,3.50
2022-09-24T14:10:33.082Z,3.20
2022-09-24T14:13:01.286Z,3.40
2022-09-24T14:15:27.858Z,3.20
2022-09-24T14:18:00.577Z,3.42
2022-09-24T14:20:30.938Z,3.20
2022-09-24T14:22:57.572Z,3.30
2022-09-24T14:25:33.275Z,3.03
2022-09-24T14:28:01.969Z,3.15
2022-09-24T14:30:30.570Z,3.40
2022-09-24T14:33:08.282Z,3.35
2022-09-24T14:35:38.482Z,3.23
2022-09-24T14:38:29.998Z,3.40
2022-09-24T14:41:01.856Z,3.47
2022-09-24T14:43:42.777Z,3.30
2022-09-24T14:46:29.276Z,3.28
2022-09-24T14:49:20.960Z,3.07
2022-09-24T14:52:01.415Z,3.20
2022-09-24T14:54:34.725Z,3.35
2022-09-24T14:57:11.471Z,3.35
2022-09-24T14:59:39.406Z,3.47
2022-09-24T15:02:23.900Z,3.17
2022-09-24T15:05:03.299Z,3.33
2022-09-24T15:07:33.061Z,3.30
2022-09-24T15:10:00.461Z,3.47
2022-09-24T15:12:32.369Z,3.20
2022-09-24T15:15:21.627Z,3.20
2022-09-24T15:17:48.278Z,2.90
2022-09-24T15:20:14.948Z,3.30
2022-09-24T15:22:41.581Z,3.30
2022-09-24T15:25:08.781Z,3.28
2022-09-24T15:27:38.991Z,3.50
2022-09-24T15:30:08.080Z,3.28
2022-09-24T15:32:36.013Z,3.30
2022-09-24T15:35:08.452Z,3.00
2022-09-24T15:37:38.936Z,3.05
2022-09-24T15:40:09.564Z,3.10
2022-09-24T15:42:36.214Z,3.20
2022-09-24T15:45:02.960Z,3.38
2022-09-24T15:47:29.702Z,3.40
2022-09-24T15:49:56.285Z,3.08
2022-09-24T15:52:26.590Z,3.10
2022-09-24T15:54:58.460Z,3.20
2022-09-24T15:57:28.507Z,3.22
2022-09-24T15:59:55.415Z,3.17
2022-09-24T16:02:23.538Z,3.00
2022-09-24T16:04:50.282Z,2.90
2022-09-24T16:07:18.240Z,3.30
2022-09-24T16:09:45.063Z,3.15
2022-09-24T16:12:19.110Z,2.85
2022-09-24T16:14:46.641Z,3.40
2022-09-24T16:17:13.333Z,3.03
2022-09-24T16:19:39.933Z,3.22
2022-09-24T16:22:06.522Z,3.08
2022-09-24T16:24:34.043Z,2.85
2022-09-24T16:27:01.204Z,3.22
2022-09-24T16:29:27.783Z,3.10
2022-09-24T16:31:54.386Z,2.97
2022-09-24T16:34:21.008Z,3.20
2022-09-24T16:36:47.679Z,3.08
2022-09-24T16:39:15.867Z,2.83
2022-09-24T16:41:42.743Z,3.20
2022-09-24T16:44:13.282Z,3.40
2022-09-24T16:46:39.890Z,3.10
2022-09-24T16:49:06.549Z,3.90
2022-09-24T16:51:33.285Z,3.03
2022-09-24T16:54:00.197Z,3.07
2022-09-24T16:56:26.940Z,2.85
2022-09-24T16:58:53.710Z,3.05
2022-09-24T17:01:22.009Z,3.13
2022-09-24T17:03:55.444Z,3.25
2022-09-24T17:06:30.904Z,2.97
2022-09-24T17:09:15.815Z,3.08
2022-09-24T17:11:42.576Z,3.20
2022-09-24T17:14:12.468Z,2.92
2022-09-24T17:16:39.989Z,2.70
2022-09-24T17:19:08.337Z,2.90
2022-09-24T17:21:36.698Z,2.90
2022-09-24T17:24:03.994Z,3.13
2022-09-24T17:26:30.709Z,3.20
2022-09-24T17:28:57.439Z,3.00
2022-09-24T17:31:25.425Z,3.40
2022-09-24T17:34:03.099Z,3.25
2022-09-24T17:36:31.101Z,3.50
2022-09-24T17:38:59.391Z,3.17
2022-09-24T17:41:26.758Z,3.30
2022-09-24T17:43:53.443Z,3.10
2022-09-24T17:46:22.558Z,2.92
2022-09-24T17:48:52.515Z,2.95
2022-09-24T17:51:32.727Z,3.00
2022-09-24T17:54:01.286Z,3.20
2022-09-24T17:56:29.846Z,3.27
2022-09-24T17:58:56.810Z,3.00
2022-09-24T18:01:36.074Z,3.17
2022-09-24T18:04:07.186Z,3.08
2022-09-24T18:06:37.363Z,3.17
2022-09-24T18:09:05.277Z,3.00
2022-09-24T18:11:34.593Z,3.25
2022-09-24T18:14:02.678Z,3.53
2022-09-24T18:16:32.031Z,3.15
2022-09-24T18:19:00.594Z,3.80
2022-09-24T18:21:28.376Z,3.60
2022-09-24T18:23:56.603Z,4.10
2022-09-24T18:26:25.507Z,3.85
2022-09-24T18:28:53.423Z,4.20
2022-09-24T18:31:22.077Z,4.18
2022-09-24T18:33:53.644Z,4.00
2022-09-24T18:36:22.532Z,4.20
2022-09-24T18:38:49.618Z,4.90
2022-09-24T18:41:22.927Z,4.25
2022-09-24T18:43:50.312Z,4.40
2022-09-24T18:46:18.357Z,3.90
2022-09-24T18:48:47.307Z,4.93
2022-09-24T18:51:31.762Z,4.57
2022-09-24T18:54:03.183Z,4.72
2022-09-24T18:56:30.365Z,4.40
2022-09-24T18:59:09.872Z,4.83
2022-09-24T19:01:37.780Z,5.03
2022-09-24T19:04:04.851Z,5.25
2022-09-24T19:06:33.624Z,5.43
2022-09-24T19:09:00.295Z,5.18
2022-09-24T19:11:28.171Z,5.00
2022-09-24T19:13:54.797Z,5.03
2022-09-24T19:16:28.107Z,5.13
2022-09-24T19:18:55.113Z,4.93
2022-09-24T19:21:26.032Z,5.00
2022-09-24T19:23:54.883Z,4.90
2022-09-24T19:26:27.243Z,5.10
2022-09-24T19:28:54.531Z,5.40
2022-09-24T19:31:23.887Z,4.82
2022-09-24T19:33:53.292Z,5.53
2022-09-24T19:36:21.567Z,5.40
2022-09-24T19:38:49.045Z,5.30
2022-09-24T19:41:26.893Z,5.47
2022-09-24T19:43:57.103Z,5.10
2022-09-24T19:46:25.661Z,4.80
2022-09-24T19:48:53.603Z,4.73
2022-09-24T19:51:28.391Z,5.05
2022-09-24T19:54:00.294Z,5.20
2022-09-24T19:56:27.442Z,4.80
2022-09-24T19:58:55.957Z,5.00
2022-09-24T20:01:28.325Z,5.10
2022-09-24T20:03:55.999Z,5.18
2022-09-24T20:06:25.107Z,4.82
2022-09-24T20:08:52.278Z,4.78
2022-09-24T20:11:21.447Z,5.10
2022-09-24T20:13:49.311Z,5.00
2022-09-24T20:16:19.551Z,5.55
2022-09-24T20:18:50.342Z,5.32
2022-09-24T20:21:18.980Z,5.22
2022-09-24T20:23:47.257Z,5.65
2022-09-24T20:26:42.223Z,5.73
2022-09-24T20:29:09.767Z,5.57
2022-09-24T20:31:37.666Z,5.93
2022-09-24T20:34:04.427Z,5.53
2022-09-24T20:36:32.273Z,5.45
2022-09-24T20:39:02.811Z,5.37
2022-09-24T20:41:29.514Z,5.20
2022-09-24T20:43:56.290Z,5.97
2022-09-24T20:46:25.872Z,5.93
2022-09-24T20:48:53.868Z,4.97
2022-09-24T20:51:21.775Z,5.50
2022-09-24T20:53:49.158Z,5.55
2022-09-24T20:56:17.321Z,5.28
2022-09-24T20:58:44.228Z,4.75
2022-09-24T21:01:11.474Z,5.18
2022-09-24T21:03:45.771Z,5.40
2022-09-24T21:06:15.057Z,5.38
2022-09-24T21:08:43.595Z,5.10
2022-09-24T21:11:16.295Z,5.78
2022-09-24T21:13:44.977Z,5.15
2022-09-24T21:16:12.417Z,5.13
2022-09-24T21:18:44.468Z,5.93
2022-09-24T21:21:14.432Z,5.93
2022-09-24T21:23:42.144Z,6.07
2022-09-24T21:26:12.661Z,5.70
2022-09-24T21:28:40.138Z,5.77
2022-09-24T21:31:07.554Z,5.70
2022-09-24T21:33:34.918Z,5.68
2022-09-24T21:36:02.702Z,6.13
2022-09-24T21:38:29.550Z,6.57
2022-09-24T21:40:57.423Z,6.07
2022-09-24T21:43:32.450Z,6.63
2022-09-24T21:46:06.498Z,6.20
2022-09-24T21:48:34.028Z,6.25
2022-09-24T21:51:13.947Z,5.72
2022-09-24T21:53:40.768Z,6.40
2022-09-24T21:56:07.746Z,6.45
2022-09-24T21:58:34.936Z,6.90
2022-09-24T22:01:05.137Z,12.13
2022-09-24T22:03:32.217Z,12.13
2022-09-24T22:06:03.209Z,12.13
2022-09-24T22:08:31.697Z,10.95
2022-09-24T22:11:04.442Z,9.57
2022-09-24T22:13:32.148Z,9.15
2022-09-24T22:16:02.707Z,8.82
2022-09-24T22:18:30.001Z,8.47
2022-09-24T22:20:57.774Z,8.68
2022-09-24T22:23:24.846Z,8.60
2022-09-24T22:25:55.889Z,7.97
2022-09-24T22:28:24.510Z,8.32
2022-09-24T22:31:01.097Z,7.97
2022-09-24T22:33:48.753Z,8.15
2022-09-24T22:36:16.063Z,8.40
2022-09-24T22:38:42.751Z,8.18
2022-09-24T22:41:11.147Z,7.82
2022-09-24T22:43:39.243Z,7.57
2022-09-24T22:46:08.854Z,7.97
2022-09-24T22:48:36.100Z,7.90
2022-09-24T22:51:03.642Z,7.72
2022-09-24T22:53:33.405Z,7.47
2022-09-24T22:56:03.963Z,7.20
2022-09-24T22:58:31.077Z,7.30
2022-09-24T23:01:07.739Z,7.82
2022-09-24T23:03:35.639Z,6.95
2022-09-24T23:06:02.959Z,7.10
2022-09-24T23:08:33.439Z,7.53
2022-09-24T23:11:06.304Z,7.50
2022-09-24T23:13:33.139Z,7.95
2022-09-24T23:16:15.013Z,7.30
2022-09-24T23:18:44.509Z,7.28
2022-09-24T23:21:14.627Z,7.20
2022-09-24T23:23:41.659Z,6.75
2022-09-24T23:26:21.491Z,7.07
2022-09-24T23:28:52.764Z,7.07
2022-09-24T23:31:22.387Z,7.03
2022-09-24T23:33:50.085Z,7.00
2022-09-24T23:36:17.611Z,7.00
2022-09-24T23:38:44.714Z,7.05
2022-09-24T23:41:12.615Z,7.15
2022-09-24T23:43:40.003Z,7.22
2022-09-24T23:46:07.223Z,6.40
2022-09-24T23:48:34.243Z,6.97
2022-09-24T23:51:01.015Z,7.38
2022-09-24T23:53:27.868Z,7.38
2022-09-24T23:55:55.405Z,7.32
2022-09-24T23:58:23.759Z,6.83
